sensor_id;sensor_type;location;lat;lon;timestamp;P1;durP1;ratioP1;P2;durP2;ratioP2
44824;SDS011;30542;47.928;2.138;2022-09-21T00:03:29;2.47;;;0.60;;
44824;SDS011;30542;47.928;2.138;2022-09-21T00:08:29;2.40;;;0.73;;
44824;SDS011;30542;47.928;2.138;2022-09-21T00:13:30;1.43;;;0.67;;
44824;SDS011;30542;47.928;2.138;2022-09-21T00:18:32;1.27;;;0.50;;
44824;SDS011;30542;47.928;2.138;2022-09-21T00:23:33;1.88;;;0.85;;
44824;SDS011;30542;47.928;2.138;2022-09-21T00:28:35;1.05;;;0.50;;
44824;SDS011;30542;47.928;2.138;2022-09-21T00:33:35;2.00;;;0.50;;
44824;SDS011;30542;47.928;2.138;2022-09-21T00:38:36;1.70;;;0.90;;
44824;SDS011;30542;47.928;2.138;2022-09-21T00:43:39;1.65;;;0.70;;
44824;SDS011;30542;47.928;2.138;2022-09-21T00:48:42;1.40;;;0.63;;
44824;SDS011;30542;47.928;2.138;2022-09-21T00:53:42;1.05;;;0.68;;
44824;SDS011;30542;47.928;2.138;2022-09-21T00:58:44;1.17;;;0.55;;
44824;SDS011;30542;47.928;2.138;2022-09-21T01:03:48;0.82;;;0.45;;
44824;SDS011;30542;47.928;2.138;2022-09-21T01:08:51;0.60;;;0.35;;
44824;SDS011;30542;47.928;2.138;2022-09-21T01:19:00;1.30;;;0.50;;
44824;SDS011;30542;47.928;2.138;2022-09-21T01:34:35;1.63;;;0.52;;
44824;SDS011;30542;47.928;2.138;2022-09-21T01:39:43;0.90;;;0.40;;
44824;SDS011;30542;47.928;2.138;2022-09-21T01:44:46;1.17;;;0.60;;
44824;SDS011;30542;47.928;2.138;2022-09-21T01:49:50;1.27;;;0.40;;
44824;SDS011;30542;47.928;2.138;2022-09-21T01:54:55;0.90;;;0.40;;
44824;SDS011;30542;47.928;2.138;2022-09-21T02:00:00;0.88;;;0.55;;
44824;SDS011;30542;47.928;2.138;2022-09-21T02:05:01;0.90;;;0.50;;
44824;SDS011;30542;47.928;2.138;2022-09-21T02:10:03;1.52;;;0.52;;
44824;SDS011;30542;47.928;2.138;2022-09-21T02:15:07;1.13;;;0.30;;
44824;SDS011;30542;47.928;2.138;2022-09-21T02:25:51;0.77;;;0.40;;
44824;SDS011;30542;47.928;2.138;2022-09-21T02:36:06;0.63;;;0.32;;
44824;SDS011;30542;47.928;2.138;2022-09-21T02:51:56;0.93;;;0.50;;
44824;SDS011;30542;47.928;2.138;2022-09-21T02:56:58;1.00;;;0.47;;
44824;SDS011;30542;47.928;2.138;2022-09-21T03:02:01;1.13;;;0.47;;
44824;SDS011;30542;47.928;2.138;2022-09-21T03:07:02;0.50;;;0.22;;
44824;SDS011;30542;47.928;2.138;2022-09-21T03:12:03;1.30;;;0.60;;
44824;SDS011;30542;47.928;2.138;2022-09-21T03:17:04;1.50;;;0.60;;
44824;SDS011;30542;47.928;2.138;2022-09-21T03:22:05;0.57;;;0.30;;
44824;SDS011;30542;47.928;2.138;2022-09-21T03:27:05;0.63;;;0.33;;
44824;SDS011;30542;47.928;2.138;2022-09-21T03:32:07;0.70;;;0.40;;
44824;SDS011;30542;47.928;2.138;2022-09-21T03:37:07;0.50;;;0.30;;
44824;SDS011;30542;47.928;2.138;2022-09-21T03:42:09;0.50;;;0.20;;
44824;SDS011;30542;47.928;2.138;2022-09-21T03:47:09;1.02;;;0.40;;
44824;SDS011;30542;47.928;2.138;2022-09-21T03:52:10;0.40;;;0.30;;
44824;SDS011;30542;47.928;2.138;2022-09-21T03:57:10;1.40;;;0.37;;
44824;SDS011;30542;47.928;2.138;2022-09-21T04:02:11;0.50;;;0.30;;
44824;SDS011;30542;47.928;2.138;2022-09-21T04:07:11;0.82;;;0.40;;
44824;SDS011;30542;47.928;2.138;2022-09-21T04:12:11;0.80;;;0.40;;
44824;SDS011;30542;47.928;2.138;2022-09-21T04:17:12;1.30;;;0.60;;
44824;SDS011;30542;47.928;2.138;2022-09-21T04:22:12;0.63;;;0.30;;
44824;SDS011;30542;47.928;2.138;2022-09-21T04:27:13;0.65;;;0.28;;
44824;SDS011;30542;47.928;2.138;2022-09-21T04:32:13;1.10;;;0.33;;
44824;SDS011;30542;47.928;2.138;2022-09-21T04:37:14;0.50;;;0.40;;
44824;SDS011;30542;47.928;2.138;2022-09-21T04:42:14;1.03;;;0.20;;
44824;SDS011;30542;47.928;2.138;2022-09-21T04:47:14;1.50;;;0.40;;
44824;SDS011;30542;47.928;2.138;2022-09-21T04:52:15;0.30;;;0.20;;
44824;SDS011;30542;47.928;2.138;2022-09-21T04:57:15;2.00;;;0.60;;
44824;SDS011;30542;47.928;2.138;2022-09-21T05:02:15;1.52;;;0.40;;
44824;SDS011;30542;47.928;2.138;2022-09-21T05:07:16;1.67;;;0.40;;
44824;SDS011;30542;47.928;2.138;2022-09-21T05:12:16;1.60;;;0.50;;
44824;SDS011;30542;47.928;2.138;2022-09-21T05:17:17;3.67;;;0.50;;
44824;SDS011;30542;47.928;2.138;2022-09-21T05:22:21;2.72;;;0.55;;
44824;SDS011;30542;47.928;2.138;2022-09-21T05:27:21;1.00;;;0.57;;
44824;SDS011;30542;47.928;2.138;2022-09-21T05:32:33;1.40;;;0.30;;
44824;SDS011;30542;47.928;2.138;2022-09-21T05:37:58;1.98;;;0.70;;
44824;SDS011;30542;47.928;2.138;2022-09-21T05:43:03;1.50;;;0.57;;
44824;SDS011;30542;47.928;2.138;2022-09-21T05:48:12;3.67;;;0.57;;
44824;SDS011;30542;47.928;2.138;2022-09-21T05:53:34;2.47;;;0.50;;
44824;SDS011;30542;47.928;2.138;2022-09-21T05:59:14;2.28;;;0.50;;
44824;SDS011;30542;47.928;2.138;2022-09-21T06:04:10;1.10;;;0.40;;
44824;SDS011;30542;47.928;2.138;2022-09-21T06:09:14;3.75;;;1.05;;
44824;SDS011;30542;47.928;2.138;2022-09-21T06:14:14;3.53;;;0.83;;
44824;SDS011;30542;47.928;2.138;2022-09-21T06:19:14;4.73;;;0.67;;
44824;SDS011;30542;47.928;2.138;2022-09-21T06:24:15;6.57;;;1.65;;
44824;SDS011;30542;47.928;2.138;2022-09-21T06:29:15;1.42;;;0.98;;
44824;SDS011;30542;47.928;2.138;2022-09-21T06:34:22;3.85;;;1.48;;
44824;SDS011;30542;47.928;2.138;2022-09-21T06:39:22;3.90;;;1.03;;
44824;SDS011;30542;47.928;2.138;2022-09-21T06:44:23;3.37;;;1.10;;
44824;SDS011;30542;47.928;2.138;2022-09-21T06:49:23;5.33;;;1.20;;
44824;SDS011;30542;47.928;2.138;2022-09-21T06:54:24;5.83;;;1.10;;
44824;SDS011;30542;47.928;2.138;2022-09-21T06:59:24;4.35;;;1.42;;
44824;SDS011;30542;47.928;2.138;2022-09-21T07:04:25;4.33;;;1.43;;
44824;SDS011;30542;47.928;2.138;2022-09-21T07:09:25;5.35;;;1.75;;
44824;SDS011;30542;47.928;2.138;2022-09-21T07:14:26;5.47;;;1.47;;
44824;SDS011;30542;47.928;2.138;2022-09-21T07:19:26;5.37;;;1.40;;
44824;SDS011;30542;47.928;2.138;2022-09-21T07:24:27;6.38;;;1.00;;
44824;SDS011;30542;47.928;2.138;2022-09-21T07:29:28;9.93;;;1.57;;
44824;SDS011;30542;47.928;2.138;2022-09-21T07:34:29;5.50;;;1.30;;
44824;SDS011;30542;47.928;2.138;2022-09-21T07:39:33;8.45;;;1.50;;
44824;SDS011;30542;47.928;2.138;2022-09-21T07:44:34;5.78;;;1.00;;
44824;SDS011;30542;47.928;2.138;2022-09-21T07:49:34;4.13;;;0.77;;
44824;SDS011;30542;47.928;2.138;2022-09-21T07:54:35;7.60;;;1.20;;
44824;SDS011;30542;47.928;2.138;2022-09-21T07:59:36;6.00;;;1.48;;
44824;SDS011;30542;47.928;2.138;2022-09-21T08:04:36;2.87;;;0.70;;
44824;SDS011;30542;47.928;2.138;2022-09-21T08:09:37;6.63;;;1.00;;
44824;SDS011;30542;47.928;2.138;2022-09-21T08:14:37;3.10;;;1.00;;
44824;SDS011;30542;47.928;2.138;2022-09-21T08:19:38;2.47;;;0.70;;
44824;SDS011;30542;47.928;2.138;2022-09-21T08:24:38;5.10;;;0.90;;
44824;SDS011;30542;47.928;2.138;2022-09-21T08:29:40;3.92;;;1.05;;
44824;SDS011;30542;47.928;2.138;2022-09-21T08:34:40;4.17;;;0.90;;
44824;SDS011;30542;47.928;2.138;2022-09-21T08:39:41;5.03;;;1.20;;
44824;SDS011;30542;47.928;2.138;2022-09-21T08:44:42;3.40;;;0.80;;
44824;SDS011;30542;47.928;2.138;2022-09-21T08:49:52;3.45;;;1.33;;
44824;SDS011;30542;47.928;2.138;2022-09-21T08:54:57;22.30;;;4.45;;
44824;SDS011;30542;47.928;2.138;2022-09-21T09:00:05;25.55;;;6.03;;
44824;SDS011;30542;47.928;2.138;2022-09-21T09:05:22;17.73;;;3.47;;
44824;SDS011;30542;47.928;2.138;2022-09-21T09:15:31;11.43;;;2.15;;
44824;SDS011;30542;47.928;2.138;2022-09-21T09:20:46;12.00;;;2.78;;
44824;SDS011;30542;47.928;2.138;2022-09-21T09:25:53;6.20;;;1.40;;
44824;SDS011;30542;47.928;2.138;2022-09-21T09:31:18;4.63;;;1.60;;
44824;SDS011;30542;47.928;2.138;2022-09-21T09:36:26;4.88;;;1.35;;
44824;SDS011;30542;47.928;2.138;2022-09-21T09:51:57;9.85;;;1.88;;
44824;SDS011;30542;47.928;2.138;2022-09-21T09:56:58;4.43;;;1.00;;
44824;SDS011;30542;47.928;2.138;2022-09-21T10:07:05;6.10;;;1.20;;
44824;SDS011;30542;47.928;2.138;2022-09-21T10:12:18;4.93;;;1.10;;
44824;SDS011;30542;47.928;2.138;2022-09-21T10:17:24;3.67;;;0.90;;
44824;SDS011;30542;47.928;2.138;2022-09-21T10:22:24;4.32;;;1.13;;
44824;SDS011;30542;47.928;2.138;2022-09-21T10:27:26;2.60;;;0.60;;
44824;SDS011;30542;47.928;2.138;2022-09-21T10:32:28;2.92;;;0.90;;
44824;SDS011;30542;47.928;2.138;2022-09-21T10:37:33;3.13;;;0.82;;
44824;SDS011;30542;47.928;2.138;2022-09-21T10:42:40;5.13;;;0.80;;
44824;SDS011;30542;47.928;2.138;2022-09-21T10:47:46;4.22;;;1.05;;
44824;SDS011;30542;47.928;2.138;2022-09-21T10:52:49;2.25;;;0.90;;
44824;SDS011;30542;47.928;2.138;2022-09-21T10:57:55;3.10;;;0.60;;
44824;SDS011;30542;47.928;2.138;2022-09-21T11:02:57;3.47;;;0.75;;
44824;SDS011;30542;47.928;2.138;2022-09-21T11:08:10;2.50;;;0.70;;
44824;SDS011;30542;47.928;2.138;2022-09-21T11:13:27;2.92;;;0.60;;
44824;SDS011;30542;47.928;2.138;2022-09-21T11:29:01;2.63;;;1.00;;
44824;SDS011;30542;47.928;2.138;2022-09-21T11:39:45;3.00;;;0.60;;
44824;SDS011;30542;47.928;2.138;2022-09-21T11:44:55;2.13;;;0.57;;
44824;SDS011;30542;47.928;2.138;2022-09-21T11:55:27;9.07;;;1.15;;
44824;SDS011;30542;47.928;2.138;2022-09-21T12:00:39;1.55;;;0.52;;
44824;SDS011;30542;47.928;2.138;2022-09-21T12:22:12;4.80;;;0.73;;
44824;SDS011;30542;47.928;2.138;2022-09-21T12:27:37;2.60;;;0.60;;
44824;SDS011;30542;47.928;2.138;2022-09-21T12:32:53;3.17;;;0.60;;
44824;SDS011;30542;47.928;2.138;2022-09-21T12:38:04;3.33;;;0.55;;
44824;SDS011;30542;47.928;2.138;2022-09-21T12:48:36;2.05;;;0.47;;
44824;SDS011;30542;47.928;2.138;2022-09-21T12:53:39;3.13;;;0.70;;
44824;SDS011;30542;47.928;2.138;2022-09-21T13:09:40;3.85;;;0.63;;
44824;SDS011;30542;47.928;2.138;2022-09-21T13:14:46;2.75;;;0.70;;
44824;SDS011;30542;47.928;2.138;2022-09-21T13:20:14;2.65;;;0.73;;
44824;SDS011;30542;47.928;2.138;2022-09-21T13:30:39;1.98;;;0.35;;
44824;SDS011;30542;47.928;2.138;2022-09-21T13:46:09;4.25;;;0.55;;
44824;SDS011;30542;47.928;2.138;2022-09-21T13:51:10;2.75;;;0.40;;
44824;SDS011;30542;47.928;2.138;2022-09-21T13:56:16;3.75;;;0.60;;
44824;SDS011;30542;47.928;2.138;2022-09-21T14:01:20;1.67;;;0.50;;
44824;SDS011;30542;47.928;2.138;2022-09-21T14:06:34;2.40;;;0.30;;
44824;SDS011;30542;47.928;2.138;2022-09-21T14:11:41;2.65;;;0.60;;
44824;SDS011;30542;47.928;2.138;2022-09-21T14:32:17;2.58;;;0.60;;
44824;SDS011;30542;47.928;2.138;2022-09-21T14:37:25;4.72;;;0.57;;
44824;SDS011;30542;47.928;2.138;2022-09-21T14:42:33;4.35;;;0.75;;
44824;SDS011;30542;47.928;2.138;2022-09-21T14:53:21;2.67;;;0.40;;
44824;SDS011;30542;47.928;2.138;2022-09-21T15:14:39;1.13;;;0.30;;
44824;SDS011;30542;47.928;2.138;2022-09-21T15:19:45;2.15;;;0.30;;
44824;SDS011;30542;47.928;2.138;2022-09-21T15:24:53;3.63;;;0.43;;
44824;SDS011;30542;47.928;2.138;2022-09-21T15:30:02;4.28;;;0.40;;
44824;SDS011;30542;47.928;2.138;2022-09-21T15:35:05;3.35;;;0.88;;
44824;SDS011;30542;47.928;2.138;2022-09-21T15:40:17;4.93;;;0.70;;
44824;SDS011;30542;47.928;2.138;2022-09-21T15:45:23;3.85;;;0.60;;
44824;SDS011;30542;47.928;2.138;2022-09-21T15:50:25;6.72;;;0.50;;
44824;SDS011;30542;47.928;2.138;2022-09-21T15:55:28;2.25;;;0.38;;
44824;SDS011;30542;47.928;2.138;2022-09-21T16:00:32;5.00;;;0.50;;
44824;SDS011;30542;47.928;2.138;2022-09-21T16:05:44;3.97;;;0.60;;
44824;SDS011;30542;47.928;2.138;2022-09-21T16:10:47;3.03;;;0.45;;
44824;SDS011;30542;47.928;2.138;2022-09-21T16:16:01;3.70;;;0.60;;
44824;SDS011;30542;47.928;2.138;2022-09-21T16:21:07;2.20;;;0.30;;
44824;SDS011;30542;47.928;2.138;2022-09-21T16:26:18;2.90;;;0.30;;
44824;SDS011;30542;47.928;2.138;2022-09-21T16:31:25;3.03;;;0.40;;
44824;SDS011;30542;47.928;2.138;2022-09-21T16:41:36;2.10;;;0.30;;
44824;SDS011;30542;47.928;2.138;2022-09-21T16:46:41;1.33;;;0.32;;
44824;SDS011;30542;47.928;2.138;2022-09-21T16:51:47;4.10;;;0.98;;
44824;SDS011;30542;47.928;2.138;2022-09-21T16:56:49;2.92;;;0.20;;
44824;SDS011;30542;47.928;2.138;2022-09-21T17:01:51;1.50;;;0.30;;
44824;SDS011;30542;47.928;2.138;2022-09-21T17:06:54;2.92;;;0.30;;
44824;SDS011;30542;47.928;2.138;2022-09-21T17:11:55;2.47;;;0.30;;
44824;SDS011;30542;47.928;2.138;2022-09-21T17:16:59;1.17;;;0.22;;
44824;SDS011;30542;47.928;2.138;2022-09-21T17:22:03;1.30;;;0.30;;
44824;SDS011;30542;47.928;2.138;2022-09-21T17:27:04;1.10;;;0.35;;
44824;SDS011;30542;47.928;2.138;2022-09-21T17:32:04;2.45;;;0.25;;
44824;SDS011;30542;47.928;2.138;2022-09-21T17:37:09;3.00;;;0.40;;
44824;SDS011;30542;47.928;2.138;2022-09-21T17:52:20;1.75;;;0.30;;
44824;SDS011;30542;47.928;2.138;2022-09-21T17:57:46;3.47;;;0.35;;
44824;SDS011;30542;47.928;2.138;2022-09-21T18:03:20;4.45;;;0.70;;
44824;SDS011;30542;47.928;2.138;2022-09-21T18:08:24;3.05;;;0.50;;
44824;SDS011;30542;47.928;2.138;2022-09-21T18:13:31;5.38;;;0.65;;
44824;SDS011;30542;47.928;2.138;2022-09-21T18:18:44;1.63;;;0.30;;
44824;SDS011;30542;47.928;2.138;2022-09-21T18:44:44;5.70;;;0.60;;
44824;SDS011;30542;47.928;2.138;2022-09-21T18:49:51;2.43;;;0.30;;
44824;SDS011;30542;47.928;2.138;2022-09-21T18:54:58;5.40;;;0.43;;
44824;SDS011;30542;47.928;2.138;2022-09-21T18:59:59;2.60;;;0.32;;
44824;SDS011;30542;47.928;2.138;2022-09-21T19:04:59;3.92;;;0.40;;
44824;SDS011;30542;47.928;2.138;2022-09-21T19:26:11;1.95;;;0.32;;
44824;SDS011;30542;47.928;2.138;2022-09-21T19:31:15;1.63;;;0.40;;
44824;SDS011;30542;47.928;2.138;2022-09-21T19:36:20;2.58;;;0.55;;
44824;SDS011;30542;47.928;2.138;2022-09-21T19:41:36;3.03;;;0.50;;
44824;SDS011;30542;47.928;2.138;2022-09-21T19:46:52;1.42;;;0.30;;
44824;SDS011;30542;47.928;2.138;2022-09-21T19:52:02;1.77;;;0.30;;
44824;SDS011;30542;47.928;2.138;2022-09-21T19:57:14;2.42;;;0.55;;
44824;SDS011;30542;47.928;2.138;2022-09-21T20:02:52;3.40;;;0.50;;
44824;SDS011;30542;47.928;2.138;2022-09-21T20:08:15;2.90;;;0.55;;
44824;SDS011;30542;47.928;2.138;2022-09-21T20:18:54;2.92;;;0.65;;
44824;SDS011;30542;47.928;2.138;2022-09-21T20:24:11;2.20;;;0.40;;
44824;SDS011;30542;47.928;2.138;2022-09-21T20:34:24;1.00;;;0.30;;
44824;SDS011;30542;47.928;2.138;2022-09-21T20:39:24;2.87;;;0.60;;
44824;SDS011;30542;47.928;2.138;2022-09-21T20:44:24;1.60;;;0.40;;
44824;SDS011;30542;47.928;2.138;2022-09-21T20:49:25;0.90;;;0.20;;
44824;SDS011;30542;47.928;2.138;2022-09-21T20:54:25;1.20;;;0.23;;
44824;SDS011;30542;47.928;2.138;2022-09-21T20:59:25;1.70;;;0.37;;
44824;SDS011;30542;47.928;2.138;2022-09-21T21:04:26;2.70;;;0.30;;
44824;SDS011;30542;47.928;2.138;2022-09-21T21:09:27;0.95;;;0.20;;
44824;SDS011;30542;47.928;2.138;2022-09-21T21:14:27;2.27;;;0.37;;
44824;SDS011;30542;47.928;2.138;2022-09-21T21:19:28;0.90;;;0.30;;
44824;SDS011;30542;47.928;2.138;2022-09-21T21:24:30;3.70;;;0.40;;
44824;SDS011;30542;47.928;2.138;2022-09-21T21:29:39;1.65;;;0.38;;
44824;SDS011;30542;47.928;2.138;2022-09-21T21:34:41;0.80;;;0.20;;
44824;SDS011;30542;47.928;2.138;2022-09-21T21:39:42;2.67;;;0.35;;
44824;SDS011;30542;47.928;2.138;2022-09-21T21:44:43;1.65;;;0.30;;
44824;SDS011;30542;47.928;2.138;2022-09-21T21:49:45;1.65;;;0.35;;
44824;SDS011;30542;47.928;2.138;2022-09-21T21:54:45;1.80;;;0.30;;
44824;SDS011;30542;47.928;2.138;2022-09-21T21:59:46;2.50;;;0.67;;
44824;SDS011;30542;47.928;2.138;2022-09-21T22:04:46;1.85;;;0.30;;
44824;SDS011;30542;47.928;2.138;2022-09-21T22:09:47;1.50;;;0.20;;
44824;SDS011;30542;47.928;2.138;2022-09-21T22:14:47;1.83;;;0.50;;
44824;SDS011;30542;47.928;2.138;2022-09-21T22:19:48;0.88;;;0.35;;
44824;SDS011;30542;47.928;2.138;2022-09-21T22:24:48;2.70;;;0.43;;
44824;SDS011;30542;47.928;2.138;2022-09-21T22:29:49;1.65;;;0.30;;
44824;SDS011;30542;47.928;2.138;2022-09-21T22:34:49;1.70;;;0.30;;
44824;SDS011;30542;47.928;2.138;2022-09-21T22:39:49;1.60;;;0.37;;
44824;SDS011;30542;47.928;2.138;2022-09-21T22:44:50;1.13;;;0.30;;
44824;SDS011;30542;47.928;2.138;2022-09-21T22:49:50;1.27;;;0.30;;
44824;SDS011;30542;47.928;2.138;2022-09-21T22:54:50;1.77;;;0.40;;
44824;SDS011;30542;47.928;2.138;2022-09-21T22:59:51;1.70;;;0.40;;
44824;SDS011;30542;47.928;2.138;2022-09-21T23:04:51;1.43;;;0.30;;
44824;SDS011;30542;47.928;2.138;2022-09-21T23:09:51;1.23;;;0.30;;
44824;SDS011;30542;47.928;2.138;2022-09-21T23:14:52;0.82;;;0.20;;
44824;SDS011;30542;47.928;2.138;2022-09-21T23:19:52;1.30;;;0.40;;
44824;SDS011;30542;47.928;2.138;2022-09-21T23:24:52;1.13;;;0.40;;
44824;SDS011;30542;47.928;2.138;2022-09-21T23:29:52;2.05;;;0.20;;
44824;SDS011;30542;47.928;2.138;2022-09-21T23:34:53;1.25;;;0.30;;
44824;SDS011;30542;47.928;2.138;2022-09-21T23:39:53;0.83;;;0.23;;
44824;SDS011;30542;47.928;2.138;2022-09-21T23:44:54;1.15;;;0.30;;
44824;SDS011;30542;47.928;2.138;2022-09-21T23:49:54;1.00;;;0.28;;
44824;SDS011;30542;47.928;2.138;2022-09-21T23:54:54;1.70;;;0.32;;
44824;SDS011;30542;47.928;2.138;2022-09-21T23:59:55;0.80;;;0.30;;
